Scott, Indiana
Current Conditions -  °F | °C
As of 3:55 PM on Saturday 25 Oct 2014 (Local Time) from KANQ Reporting Station
Clear Clear  
Wind Chill: 21°   Ceiling: Unl
Heat Index: 21°   Visibility: 10mi
Dew Point:   Wind: 16mph
Humidity: 40%   Direction: 270°W
Pressure: 29.83"   Gusts: NA
Location:  41.6594°N, 85.0055°W
Report Text: KANQ 251955Z AUTO 27014KT 10SM CLR 21/07 A2983 RMK
Loading
Personal Weather Stations






























Interactive Weather Map
Tropical Storm Tracking
New forecast layout! Learn more

10-Day Weather Forecast

Advertisements
Track Severe Weather on mobile